FFT1572 KSAN-KPHX
Flight info
| Callsign | FFT1572 |
|---|---|
| Flight time | 0h 50m |
| Altitude | 35000 |
| Route | ZZOOO4 HOGGZ HYDRR1 |
| Aircraft | A320/M-SDE3FGHIRWY/LB1 |
Departure
| Time | 2026-04-26 18:04 |
|---|---|
| Airport | San Diego International Airport (KSAN) |
Arrival
| Time | 2026-04-26 18:54 |
|---|---|
| Airport | Phoenix Sky Harbor International Airport (KPHX) |
| Time | Latitude | Longitude | Altitude | Speed | Heading |
|---|---|---|---|---|---|
| 2026-04-26 17:39 | 32.73307 | -117.20072 | 23 ft | 0 kts | 276° |
| 2026-04-26 17:54 | 32.73307 | -117.20071 | 21 ft | 2 kts | 276° |
| 2026-04-26 17:54 | 32.73303 | -117.20041 | 21 ft | 4 kts | 287° |
| 2026-04-26 17:54 | 32.73292 | -117.20016 | 23 ft | 4 kts | 336° |
| 2026-04-26 17:54 | 32.73280 | -117.20014 | 23 ft | 1 kts | 18° |
| 2026-04-26 17:55 | 32.73278 | -117.20015 | 23 ft | 0 kts | 18° |
| 2026-04-26 17:57 | 32.73360 | -117.19979 | 22 ft | 14 kts | 14° |
| 2026-04-26 17:57 | 32.73452 | -117.19953 | 23 ft | 10 kts | 18° |
| 2026-04-26 17:57 | 32.73479 | -117.19899 | 24 ft | 7 kts | 93° |
| 2026-04-26 17:57 | 32.73468 | -117.19850 | 25 ft | 5 kts | 105° |
| 2026-04-26 17:58 | 32.73413 | -117.19617 | 25 ft | 18 kts | 107° |
| 2026-04-26 17:59 | 32.73336 | -117.19301 | 20 ft | 20 kts | 106° |
| 2026-04-26 17:59 | 32.73298 | -117.19146 | 22 ft | 18 kts | 106° |
| 2026-04-26 17:59 | 32.73266 | -117.19012 | 23 ft | 16 kts | 106° |
| 2026-04-26 17:59 | 32.73232 | -117.18872 | 23 ft | 20 kts | 106° |
| 2026-04-26 18:00 | 32.73191 | -117.18701 | 29 ft | 22 kts | 106° |
| 2026-04-26 18:00 | 32.73148 | -117.18524 | 25 ft | 22 kts | 106° |
| 2026-04-26 18:00 | 32.73106 | -117.18352 | 25 ft | 21 kts | 106° |
| 2026-04-26 18:00 | 32.73066 | -117.18190 | 24 ft | 20 kts | 106° |
| 2026-04-26 18:01 | 32.73027 | -117.18029 | 25 ft | 20 kts | 106° |
| 2026-04-26 18:01 | 32.72990 | -117.17875 | 22 ft | 19 kts | 105° |
| 2026-04-26 18:01 | 32.72957 | -117.17731 | 23 ft | 14 kts | 104° |
| 2026-04-26 18:01 | 32.72952 | -117.17672 | 23 ft | 0 kts | 79° |
| 2026-04-26 18:02 | 32.72953 | -117.17666 | 23 ft | 5 kts | 78° |
| 2026-04-26 18:02 | 32.73042 | -117.17665 | 24 ft | 14 kts | 294° |
| 2026-04-26 18:02 | 32.73063 | -117.17750 | 24 ft | 0 kts | 285° |
| 2026-04-26 18:03 | 32.73077 | -117.17808 | 25 ft | 30 kts | 285° |
| 2026-04-26 18:03 | 32.73205 | -117.18347 | 28 ft | 101 kts | 286° |
| 2026-04-26 18:03 | 32.73454 | -117.19352 | 49 ft | 151 kts | 284° |
| 2026-04-26 18:04 | 32.73748 | -117.20568 | 751 ft | 153 kts | 285° |
| 2026-04-26 18:04 | 32.74023 | -117.21790 | 1516 ft | 154 kts | 286° |
| 2026-04-26 18:04 | 32.74312 | -117.23040 | 2160 ft | 164 kts | 286° |
| 2026-04-26 18:05 | 32.75039 | -117.26011 | 2961 ft | 211 kts | 286° |
| 2026-04-26 18:05 | 32.75467 | -117.27739 | 3677 ft | 222 kts | 286° |
| 2026-04-26 18:05 | 32.75906 | -117.29520 | 4604 ft | 226 kts | 286° |
| 2026-04-26 18:05 | 32.76349 | -117.31333 | 5507 ft | 230 kts | 285° |
| 2026-04-26 18:06 | 32.76490 | -117.33228 | 6394 ft | 236 kts | 257° |
| 2026-04-26 18:06 | 32.75617 | -117.34886 | 7253 ft | 247 kts | 221° |
| 2026-04-26 18:06 | 32.73989 | -117.35614 | 8130 ft | 263 kts | 186° |
| 2026-04-26 18:06 | 32.72182 | -117.35074 | 8978 ft | 279 kts | 151° |
| 2026-04-26 18:07 | 32.70670 | -117.33570 | 9822 ft | 289 kts | 135° |
| 2026-04-26 18:07 | 32.69317 | -117.31769 | 10623 ft | 295 kts | 133° |
| 2026-04-26 18:07 | 32.67974 | -117.29948 | 11402 ft | 299 kts | 133° |
| 2026-04-26 18:07 | 32.67043 | -117.28685 | 11947 ft | 302 kts | 133° |
| 2026-04-26 18:08 | 32.65152 | -117.26236 | 13005 ft | 307 kts | 135° |
| 2026-04-26 18:08 | 32.63837 | -117.24212 | 13806 ft | 313 kts | 122° |
| 2026-04-26 18:08 | 32.62935 | -117.21783 | 14184 ft | 334 kts | 105° |
| 2026-04-26 18:08 | 32.62573 | -117.18959 | 14394 ft | 358 kts | 97° |
| 2026-04-26 18:09 | 32.62298 | -117.15930 | 14569 ft | 381 kts | 96° |
| 2026-04-26 18:09 | 32.62098 | -117.12697 | 14702 ft | 404 kts | 89° |
| 2026-04-26 18:09 | 32.62426 | -117.09312 | 14923 ft | 421 kts | 76° |
| 2026-04-26 18:09 | 32.63346 | -117.05990 | 15427 ft | 427 kts | 66° |
| 2026-04-26 18:10 | 32.64440 | -117.02684 | 16001 ft | 433 kts | 67° |
| 2026-04-26 18:10 | 32.65533 | -116.99327 | 16583 ft | 438 kts | 68° |
| 2026-04-26 18:10 | 32.66389 | -116.95822 | 17153 ft | 446 kts | 79° |
| 2026-04-26 18:10 | 32.66728 | -116.92192 | 17693 ft | 450 kts | 89° |
| 2026-04-26 18:11 | 32.66801 | -116.88458 | 18241 ft | 455 kts | 90° |
| 2026-04-26 18:11 | 32.66882 | -116.84677 | 18729 ft | 460 kts | 90° |
| 2026-04-26 18:11 | 32.66971 | -116.80862 | 19219 ft | 464 kts | 90° |
| 2026-04-26 18:11 | 32.67062 | -116.77010 | 19724 ft | 468 kts | 90° |
| 2026-04-26 18:12 | 32.67134 | -116.73133 | 20192 ft | 472 kts | 91° |
| 2026-04-26 18:12 | 32.67130 | -116.69222 | 20693 ft | 476 kts | 93° |
| 2026-04-26 18:12 | 32.67062 | -116.65285 | 21189 ft | 479 kts | 94° |
| 2026-04-26 18:12 | 32.66961 | -116.61314 | 21658 ft | 483 kts | 95° |
| 2026-04-26 18:13 | 32.66852 | -116.57320 | 22109 ft | 486 kts | 95° |
| 2026-04-26 18:13 | 32.66752 | -116.53289 | 22557 ft | 490 kts | 95° |
| 2026-04-26 18:13 | 32.66667 | -116.49240 | 23012 ft | 493 kts | 94° |
| 2026-04-26 18:13 | 32.66618 | -116.46540 | 23310 ft | 496 kts | 94° |
| 2026-04-26 18:14 | 32.66694 | -116.41032 | 23813 ft | 503 kts | 86° |
| 2026-04-26 18:14 | 32.67091 | -116.36886 | 24140 ft | 507 kts | 85° |
| 2026-04-26 18:14 | 32.67488 | -116.32711 | 24468 ft | 511 kts | 86° |
| 2026-04-26 18:14 | 32.67875 | -116.28499 | 24784 ft | 516 kts | 86° |
| 2026-04-26 18:15 | 32.68255 | -116.24250 | 25109 ft | 519 kts | 86° |
| 2026-04-26 18:15 | 32.68629 | -116.20028 | 25420 ft | 523 kts | 86° |
| 2026-04-26 18:15 | 32.69011 | -116.15715 | 25736 ft | 527 kts | 86° |
| 2026-04-26 18:15 | 32.69395 | -116.11373 | 26052 ft | 531 kts | 87° |
| 2026-04-26 18:16 | 32.69788 | -116.06942 | 26388 ft | 534 kts | 87° |
| 2026-04-26 18:16 | 32.70574 | -115.98161 | 26911 ft | 542 kts | 86° |
| 2026-04-26 18:16 | 32.70985 | -115.93702 | 27202 ft | 545 kts | 87° |
| 2026-04-26 18:17 | 32.71402 | -115.89217 | 27456 ft | 549 kts | 87° |
| 2026-04-26 18:17 | 32.71825 | -115.84700 | 27729 ft | 552 kts | 87° |
| 2026-04-26 18:17 | 32.72249 | -115.80155 | 27998 ft | 555 kts | 87° |
| 2026-04-26 18:17 | 32.72669 | -115.75581 | 28270 ft | 558 kts | 87° |
| 2026-04-26 18:18 | 32.73087 | -115.70981 | 28538 ft | 561 kts | 87° |
| 2026-04-26 18:18 | 32.73505 | -115.66354 | 28720 ft | 566 kts | 87° |
| 2026-04-26 18:18 | 32.73923 | -115.61697 | 28938 ft | 568 kts | 87° |
| 2026-04-26 18:18 | 32.74339 | -115.57044 | 28979 ft | 565 kts | 88° |
| 2026-04-26 18:19 | 32.75100 | -115.47775 | 28960 ft | 562 kts | 90° |
| 2026-04-26 18:19 | 32.75408 | -115.38514 | 28958 ft | 560 kts | 94° |
| 2026-04-26 18:20 | 32.75452 | -115.29268 | 28982 ft | 559 kts | 95° |
| 2026-04-26 18:20 | 32.75508 | -115.23148 | 28979 ft | 560 kts | 94° |
| 2026-04-26 18:21 | 32.75787 | -115.10784 | 28970 ft | 560 kts | 93° |
| 2026-04-26 18:21 | 32.76028 | -115.01532 | 28964 ft | 560 kts | 93° |
| 2026-04-26 18:22 | 32.76230 | -114.92351 | 28953 ft | 560 kts | 93° |
| 2026-04-26 18:22 | 32.76401 | -114.83102 | 28956 ft | 560 kts | 94° |
| 2026-04-26 18:23 | 32.76568 | -114.73851 | 28964 ft | 560 kts | 94° |
| 2026-04-26 18:23 | 32.76735 | -114.64610 | 28970 ft | 560 kts | 94° |
| 2026-04-26 18:24 | 32.76895 | -114.55361 | 28970 ft | 560 kts | 94° |
| 2026-04-26 18:24 | 32.77021 | -114.46113 | 28977 ft | 560 kts | 94° |
| 2026-04-26 18:25 | 32.77129 | -114.36868 | 28973 ft | 560 kts | 94° |
| 2026-04-26 18:25 | 32.77246 | -114.27615 | 28928 ft | 560 kts | 94° |
| 2026-04-26 18:26 | 32.77361 | -114.18353 | 28832 ft | 561 kts | 94° |
| 2026-04-26 18:26 | 32.77416 | -114.13719 | 27937 ft | 562 kts | 93° |
| 2026-04-26 18:26 | 32.77728 | -114.09128 | 27119 ft | 562 kts | 86° |
| 2026-04-26 18:27 | 32.78179 | -114.04598 | 26970 ft | 543 kts | 86° |
| 2026-04-26 18:27 | 32.78619 | -114.00190 | 26847 ft | 534 kts | 87° |
| 2026-04-26 18:27 | 32.79051 | -113.95782 | 26730 ft | 539 kts | 87° |
| 2026-04-26 18:27 | 32.79481 | -113.91344 | 26601 ft | 541 kts | 87° |
| 2026-04-26 18:28 | 32.79911 | -113.86892 | 26483 ft | 541 kts | 87° |
| 2026-04-26 18:28 | 32.80338 | -113.82449 | 26364 ft | 541 kts | 87° |
| 2026-04-26 18:28 | 32.80768 | -113.78009 | 26246 ft | 541 kts | 86° |
| 2026-04-26 18:28 | 32.81483 | -113.73640 | 26005 ft | 534 kts | 76° |
| 2026-04-26 18:29 | 32.82715 | -113.69538 | 25759 ft | 521 kts | 66° |
| 2026-04-26 18:29 | 32.84397 | -113.65767 | 25517 ft | 510 kts | 56° |
| 2026-04-26 18:29 | 32.86472 | -113.62389 | 25278 ft | 502 kts | 46° |
| 2026-04-26 18:29 | 32.88784 | -113.59295 | 25038 ft | 499 kts | 44° |
| 2026-04-26 18:30 | 32.91083 | -113.56212 | 24803 ft | 497 kts | 45° |
| 2026-04-26 18:30 | 32.93361 | -113.53128 | 24571 ft | 495 kts | 45° |
| 2026-04-26 18:30 | 32.95621 | -113.50058 | 24379 ft | 493 kts | 45° |
| 2026-04-26 18:30 | 32.97879 | -113.46995 | 23961 ft | 491 kts | 45° |
| 2026-04-26 18:31 | 33.00132 | -113.43950 | 23381 ft | 488 kts | 45° |
| 2026-04-26 18:31 | 33.02364 | -113.40934 | 22733 ft | 484 kts | 45° |
| 2026-04-26 18:31 | 33.04580 | -113.37936 | 22262 ft | 478 kts | 45° |
| 2026-04-26 18:31 | 33.06762 | -113.34979 | 21780 ft | 473 kts | 45° |
| 2026-04-26 18:32 | 33.08923 | -113.32055 | 21387 ft | 466 kts | 45° |
| 2026-04-26 18:32 | 33.11060 | -113.29169 | 21099 ft | 462 kts | 45° |
| 2026-04-26 18:32 | 33.13181 | -113.26304 | 20797 ft | 459 kts | 45° |
| 2026-04-26 18:32 | 33.15286 | -113.23457 | 20496 ft | 456 kts | 45° |
| 2026-04-26 18:33 | 33.17374 | -113.20626 | 20201 ft | 453 kts | 45° |
| 2026-04-26 18:33 | 33.19446 | -113.17817 | 19906 ft | 450 kts | 45° |
| 2026-04-26 18:33 | 33.20815 | -113.15959 | 19704 ft | 448 kts | 45° |
| 2026-04-26 18:33 | 33.22867 | -113.13174 | 19410 ft | 445 kts | 45° |
| 2026-04-26 18:34 | 33.24812 | -113.10317 | 19104 ft | 443 kts | 54° |
| 2026-04-26 18:34 | 33.26284 | -113.07126 | 18923 ft | 434 kts | 67° |
| 2026-04-26 18:34 | 33.27213 | -113.03745 | 18644 ft | 425 kts | 79° |
| 2026-04-26 18:34 | 33.27608 | -113.00284 | 18347 ft | 416 kts | 91° |
| 2026-04-26 18:35 | 33.27691 | -112.96852 | 18033 ft | 412 kts | 92° |
| 2026-04-26 18:35 | 33.27771 | -112.93444 | 17797 ft | 409 kts | 92° |
| 2026-04-26 18:35 | 33.27853 | -112.90052 | 17504 ft | 407 kts | 92° |
| 2026-04-26 18:35 | 33.27936 | -112.86686 | 17210 ft | 404 kts | 92° |
| 2026-04-26 18:36 | 33.28021 | -112.83369 | 17027 ft | 393 kts | 91° |
| 2026-04-26 18:36 | 33.28156 | -112.80134 | 16815 ft | 386 kts | 89° |
| 2026-04-26 18:36 | 33.28403 | -112.76953 | 16500 ft | 383 kts | 86° |
| 2026-04-26 18:36 | 33.28717 | -112.73806 | 16107 ft | 382 kts | 85° |
| 2026-04-26 18:37 | 33.29057 | -112.70674 | 15864 ft | 377 kts | 85° |
| 2026-04-26 18:37 | 33.29390 | -112.67577 | 15516 ft | 375 kts | 85° |
| 2026-04-26 18:37 | 33.29705 | -112.64536 | 15171 ft | 371 kts | 85° |
| 2026-04-26 18:37 | 33.30006 | -112.61502 | 14605 ft | 365 kts | 86° |
| 2026-04-26 18:38 | 33.30289 | -112.58492 | 14297 ft | 362 kts | 86° |
| 2026-04-26 18:38 | 33.30560 | -112.55519 | 13979 ft | 358 kts | 86° |
| 2026-04-26 18:38 | 33.30828 | -112.52577 | 13478 ft | 355 kts | 86° |
| 2026-04-26 18:38 | 33.31095 | -112.49655 | 13181 ft | 351 kts | 86° |
| 2026-04-26 18:39 | 33.31360 | -112.46765 | 12835 ft | 349 kts | 86° |
| 2026-04-26 18:39 | 33.31621 | -112.43907 | 12558 ft | 342 kts | 86° |
| 2026-04-26 18:39 | 33.31876 | -112.41109 | 12150 ft | 336 kts | 86° |
| 2026-04-26 18:39 | 33.32128 | -112.38338 | 11831 ft | 334 kts | 86° |
| 2026-04-26 18:40 | 33.32380 | -112.35585 | 11511 ft | 332 kts | 86° |
| 2026-04-26 18:40 | 33.32632 | -112.32850 | 11176 ft | 328 kts | 85° |
| 2026-04-26 18:40 | 33.32880 | -112.30157 | 10858 ft | 324 kts | 86° |
| 2026-04-26 18:40 | 33.33124 | -112.27491 | 10550 ft | 321 kts | 86° |
| 2026-04-26 18:41 | 33.33367 | -112.24847 | 10237 ft | 318 kts | 86° |
| 2026-04-26 18:41 | 33.33603 | -112.22223 | 9924 ft | 316 kts | 86° |
| 2026-04-26 18:41 | 33.33837 | -112.19629 | 9597 ft | 313 kts | 85° |
| 2026-04-26 18:41 | 33.34063 | -112.17095 | 9369 ft | 306 kts | 85° |
| 2026-04-26 18:42 | 33.34285 | -112.14611 | 9266 ft | 295 kts | 85° |
| 2026-04-26 18:42 | 33.34501 | -112.12217 | 9141 ft | 284 kts | 86° |
| 2026-04-26 18:42 | 33.34709 | -112.09906 | 9035 ft | 274 kts | 86° |
| 2026-04-26 18:42 | 33.34746 | -112.07672 | 8803 ft | 267 kts | 94° |
| 2026-04-26 18:43 | 33.34715 | -112.05455 | 8508 ft | 265 kts | 94° |
| 2026-04-26 18:43 | 33.34686 | -112.03265 | 8230 ft | 262 kts | 93° |
| 2026-04-26 18:43 | 33.34659 | -112.01096 | 7950 ft | 259 kts | 93° |
| 2026-04-26 18:43 | 33.34632 | -111.98960 | 7681 ft | 255 kts | 93° |
| 2026-04-26 18:44 | 33.34605 | -111.96856 | 7414 ft | 251 kts | 93° |
| 2026-04-26 18:44 | 33.34579 | -111.94775 | 7146 ft | 248 kts | 92° |
| 2026-04-26 18:44 | 33.34489 | -111.92733 | 6917 ft | 243 kts | 99° |
| 2026-04-26 18:44 | 33.34245 | -111.90756 | 6863 ft | 241 kts | 102° |
| 2026-04-26 18:45 | 33.33947 | -111.88783 | 6775 ft | 241 kts | 103° |
| 2026-04-26 18:45 | 33.33635 | -111.86812 | 6676 ft | 241 kts | 103° |
| 2026-04-26 18:45 | 33.33322 | -111.84837 | 6574 ft | 242 kts | 103° |
| 2026-04-26 18:45 | 33.33014 | -111.82861 | 6474 ft | 243 kts | 103° |
| 2026-04-26 18:46 | 33.32706 | -111.80872 | 6373 ft | 241 kts | 102° |
| 2026-04-26 18:46 | 33.32409 | -111.78931 | 6268 ft | 233 kts | 103° |
| 2026-04-26 18:46 | 33.32125 | -111.77056 | 6160 ft | 225 kts | 103° |
| 2026-04-26 18:46 | 33.32128 | -111.75199 | 6006 ft | 223 kts | 78° |
| 2026-04-26 18:47 | 33.32795 | -111.73613 | 5946 ft | 212 kts | 49° |
| 2026-04-26 18:47 | 33.33922 | -111.72603 | 5892 ft | 196 kts | 20° |
| 2026-04-26 18:47 | 33.35194 | -111.72284 | 5830 ft | 179 kts | 352° |
| 2026-04-26 18:47 | 33.36379 | -111.72502 | 5812 ft | 175 kts | 340° |
| 2026-04-26 18:48 | 33.37601 | -111.72815 | 5750 ft | 181 kts | 343° |
| 2026-04-26 18:48 | 33.38849 | -111.73130 | 5707 ft | 184 kts | 341° |
| 2026-04-26 18:48 | 33.40110 | -111.73445 | 5664 ft | 185 kts | 343° |
| 2026-04-26 18:48 | 33.41296 | -111.73973 | 5572 ft | 179 kts | 321° |
| 2026-04-26 18:49 | 33.42183 | -111.74944 | 5398 ft | 170 kts | 299° |
| 2026-04-26 18:49 | 33.42705 | -111.76156 | 5171 ft | 163 kts | 281° |
| 2026-04-26 18:49 | 33.42852 | -111.77480 | 4940 ft | 160 kts | 264° |
| 2026-04-26 18:49 | 33.42848 | -111.78801 | 4709 ft | 158 kts | 266° |
| 2026-04-26 18:50 | 33.42849 | -111.80118 | 4475 ft | 159 kts | 268° |
| 2026-04-26 18:50 | 33.42852 | -111.81428 | 4240 ft | 156 kts | 266° |
| 2026-04-26 18:50 | 33.42854 | -111.82724 | 4025 ft | 157 kts | 267° |
| 2026-04-26 18:50 | 33.42856 | -111.84038 | 3812 ft | 157 kts | 266° |
| 2026-04-26 18:51 | 33.42859 | -111.85340 | 3586 ft | 158 kts | 268° |
| 2026-04-26 18:51 | 33.42862 | -111.86650 | 3384 ft | 157 kts | 268° |
| 2026-04-26 18:51 | 33.42864 | -111.87964 | 3161 ft | 158 kts | 268° |
| 2026-04-26 18:51 | 33.42867 | -111.89266 | 2947 ft | 154 kts | 267° |
| 2026-04-26 18:52 | 33.42868 | -111.90543 | 2736 ft | 153 kts | 266° |
| 2026-04-26 18:52 | 33.42869 | -111.91390 | 2597 ft | 154 kts | 266° |
| 2026-04-26 18:52 | 33.42872 | -111.93100 | 2329 ft | 149 kts | 266° |
| 2026-04-26 18:52 | 33.42876 | -111.94297 | 2121 ft | 140 kts | 267° |
| 2026-04-26 18:53 | 33.42878 | -111.95432 | 1966 ft | 135 kts | 268° |
| 2026-04-26 18:53 | 33.42874 | -111.96543 | 1744 ft | 134 kts | 266° |
| 2026-04-26 18:53 | 33.42873 | -111.97647 | 1554 ft | 131 kts | 269° |
| 2026-04-26 18:53 | 33.42888 | -111.98734 | 1415 ft | 131 kts | 269° |
| 2026-04-26 18:54 | 33.42887 | -111.99835 | 1249 ft | 132 kts | 267° |
| 2026-04-26 18:54 | 33.42887 | -112.00923 | 1138 ft | 123 kts | 268° |
| 2026-04-26 18:54 | 33.42885 | -112.01755 | 1130 ft | 60 kts | 270° |
| 2026-04-26 18:54 | 33.42890 | -112.02063 | 1121 ft | 19 kts | 281° |
| 2026-04-26 18:55 | 33.42945 | -112.02148 | 1124 ft | 11 kts | 345° |
| 2026-04-26 18:55 | 33.42991 | -112.02103 | 1119 ft | 8 kts | 72° |
| 2026-04-26 18:55 | 33.42996 | -112.02032 | 1126 ft | 12 kts | 89° |
| 2026-04-26 18:55 | 33.42996 | -112.01895 | 1133 ft | 21 kts | 90° |
| 2026-04-26 18:56 | 33.42996 | -112.01713 | 1133 ft | 22 kts | 89° |
| 2026-04-26 18:56 | 33.43066 | -112.01576 | 1116 ft | 20 kts | 24° |
| 2026-04-26 18:56 | 33.43190 | -112.01559 | 1131 ft | 17 kts | 32° |
| 2026-04-26 18:56 | 33.43216 | -112.01436 | 1131 ft | 15 kts | 91° |
| 2026-04-26 18:57 | 33.43215 | -112.01314 | 1131 ft | 14 kts | 90° |
| 2026-04-26 18:57 | 33.43217 | -112.01240 | 1131 ft | 13 kts | 79° |
| 2026-04-26 18:57 | 33.43283 | -112.01154 | 1132 ft | 10 kts | 72° |
| 2026-04-26 18:57 | 33.43312 | -112.01092 | 1133 ft | 8 kts | 26° |
| 2026-04-26 18:58 | 33.43364 | -112.01088 | 1133 ft | 7 kts | 2° |
| 2026-04-26 18:58 | 33.43385 | -112.01087 | 1132 ft | 0 kts | 2° |